Wetterdaten: Woche 11.01.21 - 17.01.21 (KW2)
Datum Zeit Temp. Aussen Temp. o. S. Temp +5cm Feuchte Auss Luftdruck Regen Sonnenschein Regendauer Solar Windben Empfang
11.01.2021 00:00 0,7 C 0,5 C 0,6 C 95 % 1023,8 hPa 0,0 l/m 0,00 h 0,00 h 0 W/m 0,5 km/h (0 Bft) 97,87 %
11.01.2021 01:00 0,5 C 0,0 C 0,0 C 94 % 1023,2 hPa 0,0 l/m 0,00 h 0,00 h 0 W/m 0,2 km/h (0 Bft) 97,87 %
11.01.2021 02:00 0,5 C 0,0 C 0,0 C 94 % 1023,3 hPa 0,0 l/m 0,00 h 0,00 h 0 W/m 0,3 km/h (0 Bft) 97,29 %
11.01.2021 03:00 0,5 C 0,0 C 0,0 C 95 % 1023,3 hPa 0,0 l/m 0,00 h 0,00 h 0 W/m 0,5 km/h (0 Bft) 98,58 %
11.01.2021 04:00 0,5 C 0,0 C 0,0 C 95 % 1022,9 hPa 0,2 l/m 0,00 h 0,00 h 0 W/m 4,2 km/h (1 Bft) 96,01 %
11.01.2021 05:00 0,5 C 0,0 C 0,1 C 94 % 1022,6 hPa 0,0 l/m 0,00 h 0,00 h 0 W/m 8,2 km/h (2 Bft) 94,54 %
11.01.2021 06:00 0,7 C 0,5 C 0,6 C 94 % 1022,3 hPa 0,0 l/m 0,00 h 0,00 h 0 W/m 3,1 km/h (1 Bft) 96,48 %
11.01.2021 07:00 0,9 C 0,6 C 0,6 C 94 % 1021,9 hPa 0,0 l/m 0,00 h 0,00 h 0 W/m 5,0 km/h (1 Bft) 94,20 %
11.01.2021 08:00 1,0 C 0,6 C 0,6 C 94 % 1021,8 hPa 0,0 l/m 0,00 h 0,00 h 0 W/m 4,1 km/h (1 Bft) 96,08 %
11.01.2021 09:00 0,9 C 0,6 C 0,6 C 94 % 1021,3 hPa 0,0 l/m 0,00 h 0,00 h 14 W/m 6,2 km/h (2 Bft) 96,66 %
11.01.2021 10:00 0,9 C 0,6 C 0,6 C 94 % 1021,0 hPa 0,0 l/m 0,00 h 0,00 h 33 W/m 6,7 km/h (2 Bft) 98,27 %
11.01.2021 11:00 1,3 C 1,1 C 1,0 C 93 % 1020,9 hPa 0,0 l/m 0,00 h 0,00 h 26 W/m 3,3 km/h (1 Bft) 98,01 %
11.01.2021 12:00 1,6 C 1,5 C 1,2 C 93 % 1020,1 hPa 0,0 l/m 0,00 h 0,00 h 38 W/m 1,3 km/h (1 Bft) 97,13 %
11.01.2021 13:00 2,1 C 1,9 C 1,6 C 93 % 1018,8 hPa 0,0 l/m 0,00 h 0,00 h 30 W/m 1,9 km/h (1 Bft) 97,98 %
11.01.2021 14:00 2,8 C 2,8 C 2,3 C 93 % 1017,9 hPa 0,0 l/m 0,00 h 0,00 h 30 W/m 6,3 km/h (2 Bft) 98,22 %
11.01.2021 15:00 3,5 C 3,3 C 2,7 C 92 % 1017,5 hPa 0,0 l/m 0,00 h 0,00 h 20 W/m 9,7 km/h (2 Bft) 98,01 %
11.01.2021 16:00 3,6 C 3,3 C 2,3 C 92 % 1017,0 hPa 0,0 l/m 0,00 h 0,00 h 6 W/m 9,8 km/h (2 Bft) 95,67 %
11.01.2021 17:00 3,6 C 3,1 C 2,3 C 93 % 1016,5 hPa 0,0 l/m 0,00 h 0,00 h 0 W/m 5,8 km/h (2 Bft) 96,91 %
11.01.2021 18:00 3,7 C 3,3 C 2,4 C 92 % 1015,8 hPa 0,0 l/m 0,00 h 0,00 h 0 W/m 7,5 km/h (2 Bft) 94,98 %
11.01.2021 19:00 4,1 C 3,9 C 2,8 C 91 % 1015,1 hPa 0,0 l/m 0,00 h 0,00 h 0 W/m 10,9 km/h (2 Bft) 97,51 %
11.01.2021 20:00 4,4 C 3,9 C 2,8 C 91 % 1014,5 hPa 0,0 l/m 0,00 h 0,00 h 0 W/m 10,7 km/h (2 Bft) 98,01 %
11.01.2021 21:00 4,7 C 4,4 C 2,8 C 91 % 1013,9 hPa 0,0 l/m 0,00 h 0,00 h 0 W/m 13,4 km/h (3 Bft) 98,50 %
11.01.2021 22:00 4,9 C 4,0 C 2,6 C 92 % 1013,2 hPa 0,0 l/m 0,00 h 0,30 h 0 W/m 15,9 km/h (3 Bft) 97,99 %
11.01.2021 23:00 4,5 C 3,3 C 2,3 C 95 % 1012,4 hPa 0,4 l/m 0,00 h 0,87 h 0 W/m 19,7 km/h (3 Bft) 96,72 %
12.01.2021 00:00 4,8 C 4,0 C 2,8 C 96 % 1011,4 hPa 0,0 l/m 0,00 h 0,37 h 0 W/m 19,7 km/h (3 Bft) 96,28 %
12.01.2021 01:00 5,3 C 4,2 C 3,4 C 96 % 1010,4 hPa 0,4 l/m 0,00 h 1,00 h 0 W/m 20,4 km/h (4 Bft) 96,23 %
12.01.2021 02:00 5,3 C 4,4 C 3,4 C 97 % 1009,4 hPa 0,8 l/m 0,00 h 1,00 h 0 W/m 21,7 km/h (4 Bft) 97,44 %
12.01.2021 03:00 5,3 C 4,4 C 3,5 C 98 % 1008,4 hPa 1,0 l/m 0,00 h 1,00 h 0 W/m 20,4 km/h (4 Bft) 96,58 %
12.01.2021 04:00 5,5 C 4,5 C 3,9 C 98 % 1007,3 hPa 1,4 l/m 0,00 h 1,00 h 0 W/m 21,1 km/h (4 Bft) 98,01 %
12.01.2021 05:00 5,9 C 5,0 C 4,5 C 98 % 1006,5 hPa 1,2 l/m 0,00 h 1,00 h 0 W/m 18,7 km/h (3 Bft) 96,88 %
12.01.2021 06:00 6,2 C 5,4 C 5,0 C 99 % 1005,5 hPa 1,0 l/m 0,00 h 0,93 h 0 W/m 19,1 km/h (3 Bft) 98,29 %
12.01.2021 07:00 6,5 C 5,6 C 5,1 C 99 % 1004,8 hPa 1,2 l/m 0,00 h 0,97 h 0 W/m 16,1 km/h (3 Bft) 97,82 %
12.01.2021 08:00 6,7 C 5,8 C 5,6 C 99 % 1004,5 hPa 1,2 l/m 0,00 h 1,00 h 0 W/m 11,6 km/h (2 Bft) 97,16 %
12.01.2021 09:00 7,0 C 6,1 C 5,9 C 99 % 1004,7 hPa 1,2 l/m 0,00 h 0,67 h 9 W/m 5,9 km/h (2 Bft) 97,37 %
12.01.2021 10:00 7,1 C 6,2 C 6,2 C 99 % 1005,5 hPa 0,6 l/m 0,00 h 0,17 h 20 W/m 7,0 km/h (2 Bft) 97,80 %
12.01.2021 11:00 6,8 C 6,1 C 6,1 C 99 % 1006,4 hPa 0,4 l/m 0,00 h 0,77 h 37 W/m 5,7 km/h (1 Bft) 99,36 %
12.01.2021 12:00 6,3 C 5,8 C 5,7 C 99 % 1007,3 hPa 0,0 l/m 0,00 h 0,00 h 71 W/m 6,8 km/h (2 Bft) 96,00 %
12.01.2021 13:00 5,9 C 5,5 C 5,4 C 98 % 1007,9 hPa 0,0 l/m 0,00 h 0,30 h 99 W/m 5,5 km/h (1 Bft) 96,01 %
12.01.2021 14:00 5,4 C 6,7 C 5,7 C 94 % 1008,8 hPa 0,2 l/m 0,33 h 0,03 h 146 W/m 4,5 km/h (1 Bft) 99,43 %
12.01.2021 15:00 5,3 C 5,1 C 4,0 C 87 % 1009,9 hPa 0,0 l/m 0,17 h 0,00 h 51 W/m 2,6 km/h (1 Bft) 96,52 %
12.01.2021 16:00 4,5 C 4,1 C 2,7 C 85 % 1010,8 hPa 0,0 l/m 0,17 h 0,00 h 23 W/m 1,2 km/h (1 Bft) 95,73 %
12.01.2021 17:00 3,8 C 3,3 C 1,8 C 85 % 1011,8 hPa 0,0 l/m 0,00 h 0,00 h 0 W/m 0,9 km/h (0 Bft) 96,71 %
12.01.2021 18:00 3,7 C 2,4 C 1,5 C 88 % 1012,7 hPa 0,4 l/m 0,00 h 0,43 h 0 W/m 0,7 km/h (0 Bft) 97,75 %
12.01.2021 19:00 3,0 C 2,0 C 1,0 C 92 % 1013,6 hPa 0,0 l/m 0,00 h 0,00 h 0 W/m 1,8 km/h (1 Bft) 96,95 %
12.01.2021 20:00 2,4 C 1,3 C 0,6 C 94 % 1014,6 hPa 0,0 l/m 0,00 h 0,00 h 0 W/m 0,8 km/h (0 Bft) 98,47 %
12.01.2021 21:00 1,9 C 1,1 C 0,0 C 95 % 1015,3 hPa 0,0 l/m 0,00 h 0,00 h 0 W/m 0,6 km/h (0 Bft) 97,08 %
12.01.2021 22:00 1,7 C 1,1 C 0,0 C 96 % 1015,8 hPa 0,0 l/m 0,00 h 0,00 h 0 W/m 1,2 km/h (1 Bft) 99,36 %
12.01.2021 23:00 1,4 C 0,8 C 0,0 C 96 % 1016,4 hPa 0,0 l/m 0,00 h 0,00 h 0 W/m 0,5 km/h (0 Bft) 97,72 %
13.01.2021 00:00 1,3 C 0,6 C 0,0 C 96 % 1017,0 hPa 0,0 l/m 0,00 h 0,00 h 0 W/m 1,1 km/h (1 Bft) 96,18 %
13.01.2021 01:00 1,1 C 0,6 C 0,0 C 97 % 1017,1 hPa 0,0 l/m 0,00 h 0,00 h 0 W/m 0,9 km/h (0 Bft) 99,65 %
13.01.2021 02:00 0,9 C 0,6 C -0,4 C 96 % 1017,1 hPa 0,0 l/m 0,00 h 0,00 h 0 W/m 0,7 km/h (0 Bft) 96,71 %
13.01.2021 03:00 0,9 C 0,6 C -0,2 C 96 % 1017,3 hPa 0,0 l/m 0,00 h 0,00 h 0 W/m 0,9 km/h (0 Bft) 96,79 %
13.01.2021 04:00 1,2 C 0,9 C 0,2 C 97 % 1017,6 hPa 0,0 l/m 0,00 h 0,00 h 0 W/m 1,0 km/h (0 Bft) 96,65 %
13.01.2021 05:00 1,5 C 0,8 C 0,6 C 97 % 1017,5 hPa 0,4 l/m 0,00 h 0,37 h 0 W/m 1,9 km/h (1 Bft) 94,88 %
13.01.2021 06:00 1,7 C 1,1 C 0,6 C 97 % 1017,3 hPa 0,0 l/m 0,00 h 0,03 h 0 W/m 1,0 km/h (0 Bft) 96,83 %
13.01.2021 07:00 1,9 C 1,1 C 0,9 C 97 % 1017,0 hPa 0,0 l/m 0,00 h 0,00 h 0 W/m 2,5 km/h (1 Bft) 95,16 %
13.01.2021 08:00 1,6 C 1,1 C 0,6 C 97 % 1017,1 hPa 0,0 l/m 0,00 h 0,00 h 7 W/m 2,5 km/h (1 Bft) 98,07 %
13.01.2021 09:00 1,4 C 1,1 C 0,6 C 97 % 1017,3 hPa 0,0 l/m 0,00 h 0,00 h 22 W/m 3,6 km/h (1 Bft) 98,43 %
13.01.2021 10:00 1,7 C 1,8 C 1,2 C 98 % 1017,3 hPa 0,0 l/m 0,00 h 0,00 h 65 W/m 3,0 km/h (1 Bft) 98,06 %
13.01.2021 11:00 2,5 C 2,6 C 2,2 C 98 % 1017,1 hPa 0,0 l/m 0,00 h 0,00 h 85 W/m 2,8 km/h (1 Bft) 98,30 %
13.01.2021 12:00 3,3 C 3,9 C 3,4 C 97 % 1016,7 hPa 0,0 l/m 0,10 h 0,00 h 111 W/m 1,8 km/h (1 Bft) 98,20 %
13.01.2021 13:00 4,2 C 4,8 C 4,1 C 94 % 1016,0 hPa 0,0 l/m 0,03 h 0,00 h 118 W/m 2,8 km/h (1 Bft) 96,43 %
13.01.2021 14:00 4,7 C 5,3 C 4,6 C 89 % 1015,4 hPa 0,0 l/m 0,27 h 0,00 h 112 W/m 2,6 km/h (1 Bft) 97,53 %
13.01.2021 15:00 4,3 C 3,9 C 2,8 C 87 % 1015,0 hPa 0,0 l/m 0,00 h 0,00 h 38 W/m 2,4 km/h (1 Bft) 97,19 %
13.01.2021 16:00 4,0 C 3,4 C 2,2 C 87 % 1014,7 hPa 0,0 l/m 0,00 h 0,00 h 17 W/m 1,4 km/h (1 Bft) 96,30 %
13.01.2021 17:00 3,7 C 3,0 C 1,7 C 88 % 1014,4 hPa 0,0 l/m 0,00 h 0,00 h 0 W/m 0,7 km/h (0 Bft) 95,69 %
13.01.2021 18:00 3,5 C 2,9 C 1,7 C 90 % 1014,2 hPa 0,0 l/m 0,00 h 0,00 h 0 W/m 0,9 km/h (0 Bft) 98,58 %
13.01.2021 19:00 3,5 C 3,1 C 1,7 C 91 % 1014,3 hPa 0,0 l/m 0,00 h 0,00 h 0 W/m 1,0 km/h (0 Bft) 96,56 %
13.01.2021 20:00 3,3 C 2,8 C 1,4 C 92 % 1014,6 hPa 0,0 l/m 0,00 h 0,00 h 0 W/m 2,1 km/h (1 Bft) 98,15 %
13.01.2021 21:00 3,0 C 2,7 C 1,2 C 93 % 1014,6 hPa 0,0 l/m 0,00 h 0,00 h 0 W/m 1,4 km/h (1 Bft) 96,57 %
13.01.2021 22:00 3,1 C 2,9 C 1,4 C 93 % 1015,1 hPa 0,0 l/m 0,00 h 0,03 h 0 W/m 1,7 km/h (1 Bft) 94,81 %
13.01.2021 23:00 3,4 C 2,8 C 1,3 C 94 % 1015,8 hPa 0,0 l/m 0,00 h 0,03 h 0 W/m 2,3 km/h (1 Bft) 97,51 %
14.01.2021 00:00 3,2 C 2,8 C 1,6 C 95 % 1016,6 hPa 0,0 l/m 0,00 h 0,00 h 0 W/m 0,4 km/h (0 Bft) 97,49 %
14.01.2021 01:00 2,9 C 2,7 C 1,3 C 94 % 1017,0 hPa 0,0 l/m 0,00 h 0,00 h 0 W/m 0,3 km/h (0 Bft) 96,87 %
14.01.2021 02:00 2,6 C 2,2 C 1,1 C 91 % 1017,3 hPa 0,0 l/m 0,00 h 0,00 h 0 W/m 0,3 km/h (0 Bft) 98,43 %
14.01.2021 03:00 2,2 C 1,7 C 0,4 C 86 % 1017,8 hPa 0,0 l/m 0,00 h 0,00 h 0 W/m 0,0 km/h (0 Bft) 97,05 %
14.01.2021 04:00 1,9 C 1,1 C -0,0 C 87 % 1018,3 hPa 0,0 l/m 0,00 h 0,00 h 0 W/m 0,0 km/h (0 Bft) 98,12 %
14.01.2021 05:00 1,5 C 1,1 C -0,3 C 87 % 1018,4 hPa 0,0 l/m 0,00 h 0,00 h 0 W/m 0,1 km/h (0 Bft) 96,60 %
14.01.2021 06:00 1,4 C 0,8 C -0,4 C 87 % 1018,6 hPa 0,0 l/m 0,00 h 0,00 h 0 W/m 0,0 km/h (0 Bft) 97,16 %
14.01.2021 07:00 1,1 C 0,6 C -0,6 C 88 % 1019,1 hPa 0,0 l/m 0,00 h 0,00 h 0 W/m 0,0 km/h (0 Bft) 94,49 %
14.01.2021 08:00 0,9 C 0,2 C -1,1 C 88 % 1019,5 hPa 0,0 l/m 0,00 h 0,00 h 6 W/m 0,0 km/h (0 Bft) 96,52 %
14.01.2021 09:00 0,9 C 0,8 C -0,4 C 89 % 1020,0 hPa 0,0 l/m 0,00 h 0,00 h 27 W/m 0,0 km/h (0 Bft) 99,08 %
14.01.2021 10:00 1,3 C 1,6 C 0,5 C 90 % 1020,6 hPa 0,0 l/m 0,00 h 0,00 h 57 W/m 0,1 km/h (0 Bft) 96,06 %
14.01.2021 11:00 1,8 C 2,1 C 1,0 C 88 % 1020,7 hPa 0,0 l/m 0,00 h 0,00 h 87 W/m 0,1 km/h (0 Bft) 99,51 %
14.01.2021 12:00 2,1 C 2,5 C 1,5 C 86 % 1020,4 hPa 0,0 l/m 0,00 h 0,00 h 108 W/m 0,0 km/h (0 Bft) 96,10 %
14.01.2021 13:00 2,7 C 3,3 C 2,2 C 83 % 1019,7 hPa 0,0 l/m 0,00 h 0,00 h 124 W/m 0,2 km/h (0 Bft) 83,43 %
14.01.2021 14:00 3,1 C 3,6 C 2,4 C 81 % 1019,2 hPa 0,0 l/m 0,00 h 0,00 h 102 W/m 0,1 km/h (0 Bft) 85,67 %
14.01.2021 15:00 3,0 C 2,6 C 1,2 C 81 % 1019,2 hPa 0,0 l/m 0,00 h 0,00 h 63 W/m 0,2 km/h (0 Bft) 95,86 %
14.01.2021 16:00 2,4 C 1,6 C 0,0 C 84 % 1019,2 hPa 0,0 l/m 0,00 h 0,00 h 21 W/m 0,0 km/h (0 Bft) 96,76 %
14.01.2021 17:00 1,8 C 1,1 C -0,6 C 85 % 1019,4 hPa 0,0 l/m 0,00 h 0,00 h 0 W/m 0,0 km/h (0 Bft) 94,66 %
14.01.2021 18:00 1,4 C 0,6 C -1,2 C 86 % 1019,4 hPa 0,0 l/m 0,00 h 0,00 h 0 W/m 0,0 km/h (0 Bft) 96,08 %
14.01.2021 19:00 0,8 C -0,1 C -1,9 C 87 % 1019,7 hPa 0,0 l/m 0,00 h 0,00 h 0 W/m 0,0 km/h (0 Bft) 97,72 %
14.01.2021 20:00 0,1 C -1,1 C -2,7 C 89 % 1020,0 hPa 0,0 l/m 0,00 h 0,00 h 0 W/m 0,0 km/h (0 Bft) 96,69 %
14.01.2021 21:00 -0,4 C -1,1 C -2,7 C 90 % 1020,5 hPa 0,0 l/m 0,00 h 0,00 h 0 W/m 0,1 km/h (0 Bft) 97,29 %
14.01.2021 22:00 -0,5 C -1,1 C -2,9 C 91 % 1020,9 hPa 0,0 l/m 0,00 h 0,00 h 0 W/m 0,0 km/h (0 Bft) 98,81 %
14.01.2021 23:00 -0,8 C -1,6 C -3,3 C 91 % 1021,4 hPa 0,0 l/m 0,00 h 0,00 h 0 W/m 0,0 km/h (0 Bft) 97,48 %
15.01.2021 00:00 -1,2 C -1,9 C -3,7 C 91 % 1021,8 hPa 0,0 l/m 0,00 h 0,00 h 0 W/m 0,0 km/h (0 Bft) 94,68 %
15.01.2021 01:00 -1,7 C -2,8 C -4,4 C 90 % 1022,3 hPa 0,0 l/m 0,00 h 0,00 h 0 W/m 0,0 km/h (0 Bft) 97,35 %
15.01.2021 02:00 -2,3 C -3,3 C -5,0 C 90 % 1022,7 hPa 0,0 l/m 0,00 h 0,00 h 0 W/m 0,0 km/h (0 Bft) 95,55 %
15.01.2021 03:00 -2,3 C -2,1 C -3,8 C 92 % 1023,3 hPa 0,0 l/m 0,00 h 0,00 h 0 W/m 0,0 km/h (0 Bft) 97,42 %
15.01.2021 04:00 -1,3 C -1,0 C -2,6 C 94 % 1023,8 hPa 0,0 l/m 0,00 h 0,00 h 0 W/m 0,0 km/h (0 Bft) 95,99 %
15.01.2021 05:00 -0,5 C -0,4 C -1,9 C 94 % 1024,5 hPa 0,0 l/m 0,00 h 0,00 h 0 W/m 0,3 km/h (0 Bft) 98,77 %
15.01.2021 06:00 0,0 C 0,0 C -1,6 C 94 % 1025,1 hPa 0,0 l/m 0,00 h 0,00 h 0 W/m 0,0 km/h (0 Bft) 97,22 %
15.01.2021 07:00 0,2 C 0,0 C -1,6 C 93 % 1025,6 hPa 0,0 l/m 0,00 h 0,00 h 0 W/m 0,0 km/h (0 Bft) 97,65 %
15.01.2021 08:00 0,3 C 0,0 C -1,6 C 93 % 1026,3 hPa 0,0 l/m 0,00 h 0,00 h 6 W/m 0,0 km/h (0 Bft) 95,45 %
15.01.2021 09:00 0,3 C 0,0 C -1,3 C 93 % 1027,0 hPa 0,0 l/m 0,00 h 0,00 h 28 W/m 0,1 km/h (0 Bft) 93,88 %
15.01.2021 10:00 0,5 C 0,7 C -0,9 C 94 % 1027,9 hPa 0,0 l/m 0,00 h 0,00 h 50 W/m 0,3 km/h (0 Bft) 99,29 %
15.01.2021 11:00 1,2 C 4,9 C 0,5 C 93 % 1028,5 hPa 0,0 l/m 0,53 h 0,00 h 173 W/m 0,4 km/h (0 Bft) 95,52 %
15.01.2021 12:00 3,6 C 9,2 C 6,9 C 84 % 1028,6 hPa 0,0 l/m 1,00 h 0,00 h 282 W/m 0,1 km/h (0 Bft) 98,08 %
15.01.2021 13:00 4,0 C 3,3 C 2,0 C 78 % 1028,6 hPa 0,2 l/m 0,07 h 0,00 h 86 W/m 1,0 km/h (0 Bft) 98,93 %
15.01.2021 14:00 2,1 C 1,3 C -0,1 C 86 % 1028,8 hPa 0,0 l/m 0,00 h 0,00 h 47 W/m 0,5 km/h (0 Bft) 97,32 %
15.01.2021 15:00 1,4 C 0,8 C -0,8 C 88 % 1029,0 hPa 0,0 l/m 0,00 h 0,00 h 22 W/m 0,6 km/h (0 Bft) 94,13 %
15.01.2021 16:00 1,1 C 0,6 C -1,1 C 90 % 1029,3 hPa 0,0 l/m 0,00 h 0,00 h 9 W/m 0,5 km/h (0 Bft) 96,06 %
15.01.2021 17:00 1,0 C 0,6 C -1,2 C 90 % 1029,5 hPa 0,0 l/m 0,00 h 0,00 h 0 W/m 0,2 km/h (0 Bft) 97,66 %
15.01.2021 18:00 0,8 C 0,4 C -1,6 C 90 % 1029,7 hPa 0,0 l/m 0,00 h 0,00 h 0 W/m 0,4 km/h (0 Bft) 96,48 %
15.01.2021 19:00 0,6 C 0,0 C -1,6 C 89 % 1030,0 hPa 0,0 l/m 0,00 h 0,00 h 0 W/m 0,2 km/h (0 Bft) 96,85 %
15.01.2021 20:00 0,5 C 0,0 C -1,6 C 89 % 1030,3 hPa 0,0 l/m 0,00 h 0,00 h 0 W/m 0,1 km/h (0 Bft) 95,93 %
15.01.2021 21:00 0,5 C 0,0 C -1,6 C 89 % 1030,6 hPa 0,0 l/m 0,00 h 0,00 h 0 W/m 0,1 km/h (0 Bft) 95,85 %
15.01.2021 22:00 0,3 C 0,0 C -2,0 C 88 % 1030,8 hPa 0,0 l/m 0,00 h 0,00 h 0 W/m 0,0 km/h (0 Bft) 95,38 %
15.01.2021 23:00 0,3 C -0,3 C -2,2 C 88 % 1030,8 hPa 0,0 l/m 0,00 h 0,00 h 0 W/m 0,1 km/h (0 Bft) 99,43 %
16.01.2021 00:00 0,2 C -0,5 C -2,2 C 90 % 1030,5 hPa 0,0 l/m 0,00 h 0,00 h 0 W/m 0,0 km/h (0 Bft) 93,92 %
16.01.2021 01:00 0,1 C -0,1 C -2,2 C 90 % 1030,3 hPa 0,0 l/m 0,00 h 0,00 h 0 W/m 0,0 km/h (0 Bft) 96,63 %
16.01.2021 02:00 0,1 C 0,0 C -2,2 C 90 % 1030,1 hPa 0,0 l/m 0,00 h 0,00 h 0 W/m 0,0 km/h (0 Bft) 98,15 %
16.01.2021 03:00 0,2 C 0,0 C -2,2 C 90 % 1029,7 hPa 0,0 l/m 0,00 h 0,00 h 0 W/m 0,0 km/h (0 Bft) 92,93 %
16.01.2021 04:00 0,3 C 0,0 C -2,0 C 89 % 1029,4 hPa 0,0 l/m 0,00 h 0,00 h 0 W/m 0,0 km/h (0 Bft) 98,38 %
16.01.2021 05:00 0,3 C 0,0 C -2,2 C 89 % 1029,0 hPa 0,0 l/m 0,00 h 0,00 h 0 W/m 0,0 km/h (0 Bft) 98,30 %
16.01.2021 06:00 0,3 C 0,0 C -2,2 C 89 % 1028,5 hPa 0,0 l/m 0,00 h 0,00 h 0 W/m 0,1 km/h (0 Bft) 95,70 %
16.01.2021 07:00 0,3 C 0,0 C -2,2 C 90 % 1027,9 hPa 0,0 l/m 0,00 h 0,00 h 0 W/m 0,1 km/h (0 Bft) 98,87 %
16.01.2021 08:00 0,3 C 0,0 C -1,9 C 91 % 1027,7 hPa 0,0 l/m 0,00 h 0,00 h 5 W/m 0,1 km/h (0 Bft) 95,74 %
16.01.2021 09:00 0,4 C 0,0 C -1,6 C 91 % 1027,2 hPa 0,0 l/m 0,00 h 0,00 h 16 W/m 0,2 km/h (0 Bft) 96,28 %
16.01.2021 10:00 0,5 C 0,4 C -1,4 C 91 % 1026,9 hPa 0,0 l/m 0,00 h 0,00 h 32 W/m 0,3 km/h (0 Bft) 99,65 %
16.01.2021 11:00 0,8 C 0,6 C -1,1 C 90 % 1026,5 hPa 0,0 l/m 0,00 h 0,00 h 42 W/m 0,2 km/h (0 Bft) 97,09 %
16.01.2021 12:00 1,1 C 1,0 C -0,9 C 88 % 1025,7 hPa 0,0 l/m 0,00 h 0,00 h 54 W/m 0,2 km/h (0 Bft) 97,27 %
16.01.2021 13:00 1,5 C 1,6 C -0,2 C 85 % 1024,6 hPa 0,0 l/m 0,00 h 0,00 h 71 W/m 0,7 km/h (0 Bft) 97,08 %
16.01.2021 14:00 1,9 C 1,7 C -0,5 C 75 % 1023,6 hPa 0,0 l/m 0,00 h 0,00 h 64 W/m 2,4 km/h (1 Bft) 96,08 %
16.01.2021 15:00 1,9 C 1,4 C -1,2 C 73 % 1022,8 hPa 0,0 l/m 0,00 h 0,00 h 40 W/m 1,8 km/h (1 Bft) 97,86 %
16.01.2021 16:00 1,5 C 1,0 C -1,7 C 75 % 1021,8 hPa 0,0 l/m 0,00 h 0,00 h 13 W/m 1,2 km/h (1 Bft) 97,98 %
16.01.2021 17:00 1,2 C 0,6 C -2,2 C 77 % 1020,7 hPa 0,0 l/m 0,00 h 0,00 h 0 W/m 1,0 km/h (0 Bft) 94,31 %
16.01.2021 18:00 0,8 C 0,3 C -2,4 C 79 % 1019,7 hPa 0,0 l/m 0,00 h 0,00 h 0 W/m 0,9 km/h (0 Bft) 97,76 %
16.01.2021 19:00 0,0 C -0,9 C -3,4 C 87 % 1019,4 hPa 0,0 l/m 0,00 h 0,00 h 0 W/m 1,8 km/h (1 Bft) 97,93 %
16.01.2021 20:00 -0,7 C -1,5 C -3,8 C 92 % 1019,0 hPa 0,0 l/m 0,00 h 0,20 h 0 W/m 0,9 km/h (0 Bft) 97,19 %
16.01.2021 21:00 -1,0 C -1,7 C -3,8 C 95 % 1018,4 hPa 0,0 l/m 0,00 h 0,33 h 0 W/m 0,9 km/h (0 Bft) 96,77 %
16.01.2021 22:00 -1,0 C -1,7 C -3,6 C 96 % 1017,9 hPa 0,0 l/m 0,00 h 0,40 h 0 W/m 0,8 km/h (0 Bft) 96,45 %
16.01.2021 23:00 -0,9 C -1,7 C -3,3 C 97 % 1017,6 hPa 0,0 l/m 0,00 h 0,17 h 0 W/m 0,8 km/h (0 Bft) 96,80 %
17.01.2021 00:00 -1,0 C -1,7 C -3,3 C 97 % 1017,1 hPa 0,0 l/m 0,00 h 0,13 h 0 W/m 0,7 km/h (0 Bft) 97,10 %
17.01.2021 01:00 -1,1 C -1,7 C -3,3 C 97 % 1016,4 hPa 0,0 l/m 0,00 h 0,00 h 0 W/m 1,0 km/h (0 Bft) 97,82 %
17.01.2021 02:00 -1,0 C -1,7 C -3,3 C 97 % 1016,3 hPa 0,0 l/m 0,00 h 0,00 h 0 W/m 0,2 km/h (0 Bft) 95,35 %
17.01.2021 03:00 -1,0 C -1,6 C -3,3 C 98 % 1016,1 hPa 0,0 l/m 0,00 h 0,07 h 0 W/m 0,2 km/h (0 Bft) 97,86 %
17.01.2021 04:00 -0,9 C -1,1 C -2,9 C 98 % 1015,9 hPa 0,0 l/m 0,00 h 0,00 h 0 W/m 0,2 km/h (0 Bft) 97,05 %
17.01.2021 05:00 -0,8 C -1,1 C -2,7 C 98 % 1015,9 hPa 0,0 l/m 0,00 h 0,00 h 0 W/m 0,3 km/h (0 Bft) 95,87 %
17.01.2021 06:00 -0,7 C -1,1 C -2,7 C 98 % 1015,8 hPa 0,0 l/m 0,00 h 0,00 h 0 W/m 0,3 km/h (0 Bft) 99,85 %
17.01.2021 07:00 -0,6 C -1,1 C -2,7 C 98 % 1016,0 hPa 0,0 l/m 0,00 h 0,00 h 0 W/m 0,6 km/h (0 Bft) 98,29 %
17.01.2021 08:00 -0,5 C -1,1 C -2,3 C 98 % 1016,5 hPa 0,0 l/m 0,00 h 0,03 h 0 W/m 0,2 km/h (0 Bft) 96,93 %
17.01.2021 09:00 -0,2 C -0,6 C -2,2 C 98 % 1017,2 hPa 0,0 l/m 0,00 h 0,80 h 6 W/m 0,2 km/h (0 Bft) 97,86 %
17.01.2021 10:00 -0,0 C -0,6 C -1,9 C 98 % 1017,8 hPa 0,6 l/m 0,00 h 0,27 h 11 W/m 0,1 km/h (0 Bft) 95,33 %
17.01.2021 11:00 0,4 C 0,0 C -1,3 C 99 % 1018,4 hPa 0,6 l/m 0,00 h 0,07 h 34 W/m 0,0 km/h (0 Bft) 95,07 %
17.01.2021 12:00 0,7 C 0,4 C -0,9 C 99 % 1018,7 hPa 0,8 l/m 0,00 h 0,33 h 41 W/m 0,0 km/h (0 Bft) 98,01 %
17.01.2021 13:00 1,2 C 1,0 C -0,3 C 99 % 1019,0 hPa 0,4 l/m 0,00 h 0,17 h 60 W/m 0,1 km/h (0 Bft) 99,29 %
17.01.2021 14:00 2,4 C 3,1 C 1,6 C 99 % 1019,0 hPa 0,6 l/m 0,27 h 0,00 h 123 W/m 0,1 km/h (0 Bft) 97,49 %
17.01.2021 15:00 3,7 C 3,8 C 2,2 C 100 % 1019,7 hPa 0,4 l/m 0,00 h 0,00 h 31 W/m 0,0 km/h (0 Bft) 96,45 %
17.01.2021 16:00 4,8 C 4,4 C 2,7 C 100 % 1020,5 hPa 0,0 l/m 0,00 h 0,00 h 11 W/m 0,0 km/h (0 Bft) 82,13 %
17.01.2021 17:00 4,6 C 4,1 C 2,4 C 100 % 1021,0 hPa 0,0 l/m 0,00 h 0,00 h 0 W/m 0,2 km/h (0 Bft) 95,38 %
17.01.2021 18:00 4,3 C 3,7 C 2,4 C 100 % 1021,7 hPa 0,6 l/m 0,00 h 0,50 h 0 W/m 0,4 km/h (0 Bft) 97,26 %
17.01.2021 19:00 4,4 C 3,9 C 2,6 C 100 % 1022,2 hPa 0,2 l/m 0,00 h 0,20 h 0 W/m 0,6 km/h (0 Bft) 96,56 %
17.01.2021 20:00 4,4 C 3,7 C 2,7 C 100 % 1022,6 hPa 0,4 l/m 0,00 h 0,53 h 0 W/m 1,8 km/h (1 Bft) 97,88 %
17.01.2021 21:00 4,1 C 3,3 C 2,5 C 100 % 1023,1 hPa 0,2 l/m 0,00 h 0,00 h 0 W/m 0,4 km/h (0 Bft) 98,09 %
17.01.2021 22:00 4,1 C 3,3 C 2,6 C 100 % 1023,3 hPa 0,0 l/m 0,00 h 0,00 h 0 W/m 0,9 km/h (0 Bft) 97,71 %
17.01.2021 23:00 4,2 C 3,3 C 2,8 C 100 % 1023,7 hPa 0,0 l/m 0,00 h 0,17 h 0 W/m 0,4 km/h (0 Bft) 96,85 %
Min-Datum _ 15.01.21 15.01.21 15.01.21 16.01.21 12.01.21 - - - - 11.01.21 16.01.21
_ Min-Zeit 03:06 01:54 01:56 14:44 08:58 - - - - 00:00 00:02
Minimum _ -2,6 C -3,3 C -5,0 C 72 % 1004,3 hPa - - - - 0,0 km/h (0 Bft) 11,11 %
Max-Datum _ 12.01.21 15.01.21 15.01.21 17.01.21 15.01.21 12.01.21 15.01.21 12.01.21 15.01.21 12.01.21 11.01.21
_ Max-Zeit 10:10 12:32 12:44 14:28 22:54 04:02 12:08 05:33 12:42 02:24 00:00
Maximum _ 7,3 C 11,1 C 8,9 C 100 % 1031,0 hPa 1,4 l/m 0,07 h 0,08 h 396 W/m 30,6 km/h
S-SO (5 Bft)
100,00 %
Durchschnitt _ 1,9 C 1,6 C 0,3 C 92 % 1019,3 hPa #17,0 l/m #2:56 h #16:40 h 53 W/m 2,6 km/h (1 Bft) 96,80 %
© 2021 W. Hausmann